Time;durP1;ratioP1;P1;durP2;ratioP2;P2;SDS_P1;SDS_P2;PMS_P1;PMS_P2;Temp;Humidity;BMP_temperature;BMP_pressure;BME280_temperature;BME280_humidity;BME280_pressure;Samples;Min_cycle;Max_cycle;Signal;HPM_P1;HPM_P2
2023/06/17 00:01:30;;;;;;;6.63;6.03;;;27.80;52.50;;;;;;5021021;28;20461;-67
2023/06/17 00:04:02;;;;;;;6.13;5.53;;;27.80;52.60;;;;;;5011014;28;21403;-68
2023/06/17 00:06:30;;;;;;;6.37;5.43;;;27.80;52.50;;;;;;5011594;28;20464;-67
2023/06/17 00:08:59;;;;;;;5.40;5.00;;;27.80;52.50;;;;;;5015756;28;20448;-66
2023/06/17 00:11:28;;;;;;;5.60;5.10;;;27.80;52.50;;;;;;5027762;28;20511;-66
2023/06/17 00:14:00;;;;;;;5.60;5.17;;;27.80;52.40;;;;;;5026487;28;20530;-66
2023/06/17 00:16:32;;;;;;;5.83;5.43;;;27.70;52.30;;;;;;5030811;28;20487;-66
2023/06/17 00:19:02;;;;;;;7.07;6.27;;;27.70;52.30;;;;;;5032018;28;20498;-66
2023/06/17 00:21:31;;;;;;;9.13;5.87;;;27.70;52.20;;;;;;5016373;28;20463;-66
2023/06/17 00:23:59;;;;;;;7.10;6.53;;;27.70;52.10;;;;;;5015787;28;20453;-66
2023/06/17 00:26:27;;;;;;;5.53;5.03;;;27.70;52.00;;;;;;5014951;28;20471;-66
2023/06/17 00:28:55;;;;;;;5.23;4.87;;;27.70;52.00;;;;;;5013387;28;20467;-67
2023/06/17 00:31:25;;;;;;;5.67;5.27;;;27.70;51.90;;;;;;5023818;28;20959;-66
2023/06/17 00:33:53;;;;;;;5.90;5.50;;;27.70;51.90;;;;;;5038636;28;20499;-67
2023/06/17 00:36:23;;;;;;;6.03;5.63;;;27.70;51.90;;;;;;5028630;28;20579;-72
2023/06/17 00:38:51;;;;;;;6.00;5.60;;;27.60;51.70;;;;;;5020509;28;20470;-67
2023/06/17 00:41:20;;;;;;;6.03;5.60;;;27.70;51.70;;;;;;5026185;28;20458;-66
2023/06/17 00:43:48;;;;;;;6.27;5.77;;;27.60;51.50;;;;;;5018573;28;20464;-69
2023/06/17 00:46:24;;;;;;;5.60;5.20;;;27.60;51.30;;;;;;5019078;28;20479;-66
2023/06/17 00:48:53;;;;;;;6.93;6.33;;;27.60;51.20;;;;;;5029900;28;20518;-66
2023/06/17 00:51:22;;;;;;;5.80;5.40;;;27.60;51.00;;;;;;5022839;28;20977;-66
2023/06/17 00:53:51;;;;;;;5.10;4.70;;;27.60;51.20;;;;;;5016632;28;20492;-68
2023/06/17 00:56:20;;;;;;;5.73;5.33;;;27.60;50.90;;;;;;5025313;28;20465;-70
2023/06/17 00:58:50;;;;;;;5.30;4.90;;;27.50;51.20;;;;;;5018162;28;20519;-67
2023/06/17 01:01:19;;;;;;;6.10;5.60;;;27.50;50.80;;;;;;5021083;28;20460;-67
2023/06/17 01:03:49;;;;;;;6.20;5.70;;;27.50;50.90;;;;;;5018392;28;20522;-69
2023/06/17 01:06:26;;;;;;;5.70;5.27;;;27.50;50.50;;;;;;5020163;28;20515;-66
2023/06/17 01:09:01;;;;;;;6.07;5.57;;;27.50;50.70;;;;;;5024278;28;20513;-66
2023/06/17 01:11:31;;;;;;;5.37;5.00;;;27.50;50.70;;;;;;5030295;28;20459;-67
2023/06/17 01:14:00;;;;;;;5.50;5.10;;;27.40;50.90;;;;;;5020374;28;20805;-66
2023/06/17 01:16:32;;;;;;;5.73;5.30;;;27.40;50.90;;;;;;5023761;28;20463;-67
2023/06/17 01:19:02;;;;;;;5.60;5.20;;;27.40;50.90;;;;;;5025855;28;21041;-67
2023/06/17 01:21:32;;;;;;;5.53;5.13;;;27.40;50.70;;;;;;5027684;28;20473;-66
2023/06/17 01:24:03;;;;;;;5.93;5.20;;;27.40;50.80;;;;;;5032341;28;20463;-67
2023/06/17 01:26:34;;;;;;;6.23;5.80;;;27.40;50.60;;;;;;5030850;28;20469;-66
2023/06/17 01:29:03;;;;;;;5.30;4.90;;;27.40;50.80;;;;;;5031447;28;20501;-67
2023/06/17 01:31:31;;;;;;;6.80;6.20;;;27.40;50.70;;;;;;5015007;28;20460;-66
2023/06/17 01:34:02;;;;;;;6.73;6.07;;;27.40;50.60;;;;;;5012022;28;20478;-67
2023/06/17 01:36:36;;;;;;;5.20;4.80;;;27.40;50.60;;;;;;5012727;28;20497;-66
2023/06/17 01:39:06;;;;;;;5.53;5.13;;;27.40;50.70;;;;;;5013230;28;20511;-68
2023/06/17 01:41:43;;;;;;;5.90;5.40;;;27.40;50.80;;;;;;5031678;28;20947;-66
2023/06/17 01:44:13;;;;;;;5.80;5.30;;;27.40;50.80;;;;;;5031210;28;20468;-66
2023/06/17 01:46:42;;;;;;;5.97;5.47;;;27.30;50.70;;;;;;5021921;28;20483;-67
2023/06/17 01:49:12;;;;;;;6.20;5.67;;;27.40;50.60;;;;;;5018201;28;20520;-66
2023/06/17 01:51:40;;;;;;;7.00;5.97;;;27.30;50.50;;;;;;5022882;28;20642;-69
2023/06/17 01:54:08;;;;;;;6.57;6.07;;;27.30;50.60;;;;;;5012070;28;20505;-68
2023/06/17 01:56:38;;;;;;;5.40;5.00;;;27.30;50.70;;;;;;5034873;28;20471;-67
2023/06/17 01:59:06;;;;;;;6.30;5.90;;;27.30;50.60;;;;;;5013093;28;20523;-66
2023/06/17 02:01:34;;;;;;;6.50;6.00;;;27.30;50.40;;;;;;5012078;28;20458;-66
2023/06/17 02:04:03;;;;;;;6.20;5.70;;;27.30;50.40;;;;;;5020358;28;20475;-67
2023/06/17 02:06:32;;;;;;;6.03;5.63;;;27.30;50.40;;;;;;5029241;28;20475;-67
2023/06/17 02:09:00;;;;;;;5.83;5.27;;;27.30;50.40;;;;;;5045890;28;20464;-67
2023/06/17 02:11:28;;;;;;;5.93;5.43;;;27.30;50.40;;;;;;5030358;28;20469;-66
2023/06/17 02:13:58;;;;;;;6.80;6.23;;;27.30;50.50;;;;;;5027151;28;21211;-69
2023/06/17 02:16:27;;;;;;;5.67;5.27;;;27.20;50.40;;;;;;5019018;28;21001;-66
2023/06/17 02:18:55;;;;;;;6.57;6.07;;;27.20;50.40;;;;;;5020553;28;20491;-66
2023/06/17 02:21:25;;;;;;;5.90;5.50;;;27.20;50.40;;;;;;5031689;28;20940;-67
2023/06/17 02:23:53;;;;;;;6.93;6.27;;;27.20;50.40;;;;;;5047481;28;20466;-67
2023/06/17 02:26:21;;;;;;;6.00;5.50;;;27.20;50.30;;;;;;5029085;28;20475;-67
2023/06/17 02:28:49;;;;;;;6.67;6.07;;;27.10;50.10;;;;;;5028493;28;20464;-68
2023/06/17 02:31:19;;;;;;;6.67;6.17;;;27.10;50.20;;;;;;5032029;28;20449;-66
2023/06/17 02:33:47;;;;;;;5.80;5.30;;;27.10;50.30;;;;;;5026027;28;20540;-66
2023/06/17 02:36:16;;;;;;;6.13;5.63;;;27.00;50.30;;;;;;5027902;28;20492;-66
2023/06/17 02:38:44;;;;;;;5.80;5.30;;;27.00;50.40;;;;;;5023644;28;20550;-66
2023/06/17 02:41:12;;;;;;;5.80;5.40;;;27.00;50.40;;;;;;5044210;28;20875;-67
2023/06/17 02:43:40;;;;;;;6.70;6.20;;;27.00;50.40;;;;;;5044141;28;20531;-69
2023/06/17 02:46:09;;;;;;;5.97;5.47;;;27.00;50.40;;;;;;5021961;28;20536;-66
2023/06/17 02:48:38;;;;;;;5.73;5.33;;;27.00;50.40;;;;;;5031074;28;20473;-66
2023/06/17 02:51:07;;;;;;;5.80;5.30;;;27.00;50.20;;;;;;5012570;28;20835;-66
2023/06/17 02:53:35;;;;;;;6.40;5.80;;;26.90;50.50;;;;;;5018396;28;20550;-66
2023/06/17 02:56:05;;;;;;;5.60;5.20;;;26.90;50.60;;;;;;5030811;28;20517;-66
2023/06/17 02:58:34;;;;;;;5.90;5.50;;;27.00;50.60;;;;;;5030569;28;20462;-66
2023/06/17 03:01:02;;;;;;;5.77;5.33;;;27.00;50.60;;;;;;5023220;28;20574;-68
2023/06/17 03:03:34;;;;;;;6.57;6.00;;;27.00;50.50;;;;;;5015902;28;20467;-66
2023/06/17 03:06:06;;;;;;;6.33;5.87;;;26.90;50.50;;;;;;5032969;28;20497;-71
2023/06/17 03:08:39;;;;;;;6.47;5.97;;;26.90;50.60;;;;;;5016577;28;20571;-66
2023/06/17 03:11:08;;;;;;;7.10;5.87;;;26.90;50.50;;;;;;5029032;28;20587;-66
2023/06/17 03:13:38;;;;;;;6.30;5.80;;;27.00;50.50;;;;;;5021550;28;20471;-66
2023/06/17 03:16:16;;;;;;;5.80;5.30;;;26.90;50.50;;;;;;5027135;28;20470;-66
2023/06/17 03:18:45;;;;;;;6.30;5.80;;;26.90;50.40;;;;;;5027776;28;20496;-66
2023/06/17 03:21:14;;;;;;;5.90;5.40;;;26.90;50.40;;;;;;5021869;28;20465;-66
2023/06/17 03:23:43;;;;;;;6.97;6.37;;;26.90;50.50;;;;;;5013992;28;20818;-66
2023/06/17 03:26:12;;;;;;;6.97;5.70;;;26.90;50.40;;;;;;5021359;28;20481;-67
2023/06/17 03:28:40;;;;;;;5.93;5.53;;;26.90;50.50;;;;;;5019249;28;20474;-68
2023/06/17 03:31:08;;;;;;;5.87;5.43;;;26.90;50.50;;;;;;5012066;28;20490;-66
2023/06/17 03:33:37;;;;;;;7.33;5.60;;;26.90;50.40;;;;;;5022775;28;20877;-68
2023/06/17 03:36:05;;;;;;;6.10;5.70;;;26.90;50.50;;;;;;5026506;28;20486;-66
2023/06/17 03:38:35;;;;;;;6.10;5.70;;;26.90;50.50;;;;;;5025625;28;20484;-67
2023/06/17 03:41:03;;;;;;;6.73;6.13;;;26.90;50.50;;;;;;5027041;28;20456;-67
2023/06/17 03:43:33;;;;;;;6.50;6.00;;;26.90;50.50;;;;;;5024108;28;20585;-67
2023/06/17 03:46:01;;;;;;;6.80;6.30;;;26.90;50.50;;;;;;5027646;28;20498;-66
2023/06/17 03:48:30;;;;;;;7.03;5.53;;;26.90;50.50;;;;;;5034029;28;20816;-67
2023/06/17 03:50:58;;;;;;;6.47;5.83;;;26.90;50.50;;;;;;5029337;28;20834;-66
2023/06/17 03:53:27;;;;;;;7.23;6.63;;;26.80;50.50;;;;;;5031650;28;20834;-66
2023/06/17 03:55:56;;;;;;;6.77;6.27;;;26.90;50.50;;;;;;5014150;28;20934;-66
2023/06/17 03:58:25;;;;;;;7.17;6.57;;;26.80;50.50;;;;;;5015115;28;20424;-66
2023/06/17 04:00:54;;;;;;;7.00;6.40;;;26.80;50.50;;;;;;5012422;28;20984;-66
2023/06/17 04:03:24;;;;;;;9.60;6.70;;;26.80;50.50;;;;;;5019767;28;20463;-66
2023/06/17 04:05:54;;;;;;;6.57;5.97;;;26.80;50.50;;;;;;5024521;28;20464;-71
2023/06/17 04:08:23;;;;;;;6.87;6.30;;;26.80;50.60;;;;;;5024876;28;20579;-67
2023/06/17 04:10:53;;;;;;;6.47;5.97;;;26.80;50.50;;;;;;5025712;28;20488;-66
2023/06/17 04:13:23;;;;;;;6.13;5.73;;;26.80;50.60;;;;;;5027727;28;20469;-66
2023/06/17 04:15:53;;;;;;;6.23;5.83;;;26.80;50.50;;;;;;5012343;28;20839;-66
2023/06/17 04:18:22;;;;;;;6.80;6.30;;;26.80;50.60;;;;;;5025464;28;20470;-67
2023/06/17 04:20:56;;;;;;;6.63;6.13;;;26.80;50.60;;;;;;5025451;28;20481;-66
2023/06/17 04:23:27;;;;;;;6.57;6.07;;;26.80;50.70;;;;;;5033351;28;20445;-67
2023/06/17 04:25:56;;;;;;;7.20;6.60;;;26.80;50.70;;;;;;5033076;28;20474;-66
2023/06/17 04:28:31;;;;;;;6.20;5.70;;;26.80;50.60;;;;;;5025770;28;20505;-67
2023/06/17 04:31:01;;;;;;;6.90;6.33;;;26.80;50.70;;;;;;5030935;28;20473;-66
2023/06/17 04:33:37;;;;;;;6.03;5.63;;;26.80;50.70;;;;;;5032024;28;20542;-67
2023/06/17 04:36:08;;;;;;;7.10;6.60;;;26.70;50.50;;;;;;5049378;28;20518;-66
2023/06/17 04:38:41;;;;;;;7.43;6.83;;;26.70;50.60;;;;;;5034286;28;20434;-67
2023/06/17 04:41:10;;;;;;;6.10;5.60;;;26.70;50.70;;;;;;5025344;28;20460;-67
2023/06/17 04:43:39;;;;;;;6.30;5.80;;;26.70;50.70;;;;;;5021989;28;20457;-66
2023/06/17 04:46:12;;;;;;;6.60;5.97;;;26.70;50.60;;;;;;5037720;28;20841;-66
2023/06/17 04:48:43;;;;;;;6.43;5.77;;;26.70;50.70;;;;;;5021480;28;20556;-66
2023/06/17 04:51:12;;;;;;;6.60;6.10;;;26.70;50.90;;;;;;5024696;28;20465;-66
2023/06/17 04:53:41;;;;;;;6.43;5.93;;;26.70;50.90;;;;;;5032645;28;20462;-66
2023/06/17 04:56:12;;;;;;;6.70;6.10;;;26.70;50.90;;;;;;5046077;28;20496;-67
2023/06/17 04:58:42;;;;;;;6.70;6.10;;;26.70;50.80;;;;;;5032673;28;20465;-66
2023/06/17 05:01:13;;;;;;;6.67;6.20;;;26.70;50.80;;;;;;5029617;28;20938;-66
2023/06/17 05:03:42;;;;;;;7.10;6.60;;;26.60;50.90;;;;;;5032909;28;20838;-67
2023/06/17 05:06:10;;;;;;;6.57;6.10;;;26.60;50.90;;;;;;5032643;28;20464;-66
2023/06/17 05:08:39;;;;;;;6.43;5.93;;;26.60;50.90;;;;;;5038344;28;20489;-66
2023/06/17 05:11:08;;;;;;;6.47;5.90;;;26.70;50.90;;;;;;5036138;28;20475;-67
2023/06/17 05:13:39;;;;;;;7.90;6.10;;;26.60;51.00;;;;;;5023521;28;20466;-66
2023/06/17 05:16:12;;;;;;;8.57;7.00;;;26.70;50.90;;;;;;5020536;28;20667;-69
2023/06/17 05:18:41;;;;;;;7.40;6.70;;;26.70;50.90;;;;;;5022426;28;20465;-69
2023/06/17 05:21:12;;;;;;;7.77;7.07;;;26.70;51.00;;;;;;5012115;28;20460;-67
2023/06/17 05:23:43;;;;;;;6.30;5.90;;;26.70;51.00;;;;;;5014928;28;20477;-66
2023/06/17 05:26:12;;;;;;;6.43;5.97;;;26.70;51.00;;;;;;5036203;28;20581;-67
2023/06/17 05:28:40;;;;;;;7.30;6.60;;;26.70;51.10;;;;;;5020958;28;20474;-66
2023/06/17 05:31:11;;;;;;;6.70;6.20;;;26.70;51.00;;;;;;5016996;28;20468;-66
2023/06/17 05:33:40;;;;;;;6.97;6.37;;;26.80;51.10;;;;;;5037322;28;21110;-68
2023/06/17 05:36:09;;;;;;;7.53;7.00;;;26.80;51.00;;;;;;5026000;28;20570;-65
2023/06/17 05:38:37;;;;;;;7.33;6.63;;;26.80;51.00;;;;;;5025049;28;21030;-66
2023/06/17 05:41:06;;;;;;;6.83;6.40;;;26.80;51.00;;;;;;5018079;28;20463;-66
2023/06/17 05:43:34;;;;;;;8.03;7.33;;;26.80;51.00;;;;;;5021427;28;20606;-66
2023/06/17 05:46:03;;;;;;;6.77;6.27;;;26.80;50.80;;;;;;5020700;28;20517;-66
2023/06/17 05:48:33;;;;;;;5.97;5.47;;;26.80;50.80;;;;;;5020827;28;20477;-64
2023/06/17 05:51:02;;;;;;;6.90;6.30;;;26.80;50.80;;;;;;5017252;28;20517;-66
2023/06/17 05:53:30;;;;;;;6.37;5.87;;;26.80;50.80;;;;;;5015503;28;20479;-67
2023/06/17 05:55:59;;;;;;;6.17;5.67;;;26.80;50.80;;;;;;5026459;28;20477;-64
2023/06/17 05:58:27;;;;;;;6.43;6.00;;;26.80;50.90;;;;;;5017808;28;20464;-66
2023/06/17 06:01:01;;;;;;;6.63;6.00;;;26.80;50.70;;;;;;5025076;28;20471;-65
2023/06/17 06:03:30;;;;;;;7.20;6.63;;;26.80;50.80;;;;;;5017925;28;20567;-66
2023/06/17 06:06:00;;;;;;;6.73;6.07;;;26.80;50.90;;;;;;5019186;28;20455;-66
2023/06/17 06:08:29;;;;;;;6.93;6.40;;;26.80;50.90;;;;;;5009501;28;20777;-64
2023/06/17 06:10:57;;;;;;;6.90;6.40;;;26.80;50.80;;;;;;5020424;28;20867;-65
2023/06/17 06:13:26;;;;;;;8.03;7.33;;;26.80;50.90;;;;;;5017103;28;20859;-65
2023/06/17 06:15:54;;;;;;;7.00;6.30;;;26.80;50.90;;;;;;5014681;28;20463;-68
2023/06/17 06:18:22;;;;;;;6.10;5.67;;;26.90;51.00;;;;;;5020134;28;20502;-67
2023/06/17 06:20:52;;;;;;;6.93;6.43;;;26.90;50.90;;;;;;5030573;28;20467;-67
2023/06/17 06:23:21;;;;;;;7.00;5.33;;;26.90;50.70;;;;;;5046054;28;20533;-66
2023/06/17 06:25:50;;;;;;;6.90;6.30;;;26.90;50.80;;;;;;5021557;28;20478;-66
2023/06/17 06:28:18;;;;;;;6.60;6.10;;;26.90;50.90;;;;;;5016056;28;20519;-65
2023/06/17 06:30:47;;;;;;;6.97;6.27;;;26.90;50.80;;;;;;5008484;28;21033;-66
2023/06/17 06:33:16;;;;;;;5.97;5.57;;;26.90;50.70;;;;;;5016038;28;20478;-66
2023/06/17 06:35:44;;;;;;;5.97;5.47;;;26.90;50.80;;;;;;5011009;28;20513;-66
2023/06/17 06:38:17;;;;;;;6.43;5.93;;;26.90;50.80;;;;;;5012341;28;20519;-66
2023/06/17 06:40:47;;;;;;;6.60;6.10;;;26.90;50.90;;;;;;5012740;28;20515;-65
2023/06/17 06:43:16;;;;;;;7.17;6.43;;;26.90;50.90;;;;;;5013917;28;20460;-65
2023/06/17 06:45:55;;;;;;;7.30;6.60;;;26.90;50.90;;;;;;5014641;28;20503;-69
2023/06/17 06:48:23;;;;;;;6.90;6.30;;;26.90;50.90;;;;;;5017231;28;20537;-66
2023/06/17 06:50:51;;;;;;;7.83;6.07;;;26.90;50.90;;;;;;5038437;28;20491;-66
2023/06/17 06:53:23;;;;;;;9.50;7.20;;;26.90;50.90;;;;;;5019764;28;20487;-65
2023/06/17 06:55:55;;;;;;;6.90;6.30;;;26.90;51.10;;;;;;5021571;28;20484;-66
2023/06/17 06:58:24;;;;;;;7.17;6.57;;;27.00;51.50;;;;;;5034902;28;20808;-65
2023/06/17 07:00:52;;;;;;;7.43;6.80;;;27.00;51.70;;;;;;5017662;28;20542;-71
2023/06/17 07:03:21;;;;;;;7.57;6.90;;;27.00;51.80;;;;;;5021011;28;20494;-66
2023/06/17 07:05:49;;;;;;;7.47;6.77;;;27.00;51.80;;;;;;5032755;28;20567;-66
2023/06/17 07:08:18;;;;;;;9.63;6.67;;;27.00;51.80;;;;;;5029890;28;20485;-65
2023/06/17 07:10:48;;;;;;;8.90;6.27;;;27.00;51.90;;;;;;5017980;28;20461;-66
2023/06/17 07:13:18;;;;;;;7.00;6.50;;;27.00;51.90;;;;;;5012001;28;20468;-66
2023/06/17 07:15:48;;;;;;;7.17;6.67;;;27.00;52.10;;;;;;5023317;28;20455;-65
2023/06/17 07:18:17;;;;;;;6.70;6.20;;;27.00;52.00;;;;;;5026962;28;20584;-65
2023/06/17 07:20:45;;;;;;;6.90;6.30;;;27.00;52.00;;;;;;5022038;28;21035;-65
2023/06/17 07:23:13;;;;;;;7.23;6.63;;;27.00;51.90;;;;;;5027989;28;20460;-65
2023/06/17 07:25:42;;;;;;;8.30;6.23;;;27.00;51.90;;;;;;5023508;28;20971;-66
2023/06/17 07:28:11;;;;;;;6.00;5.50;;;27.10;51.80;;;;;;5022218;28;20451;-66
2023/06/17 07:30:41;;;;;;;7.20;6.60;;;27.10;51.70;;;;;;5036961;28;20465;-66
2023/06/17 07:33:10;;;;;;;7.17;6.10;;;27.10;51.60;;;;;;5016859;28;20471;-67
2023/06/17 07:35:38;;;;;;;6.77;6.17;;;27.10;51.60;;;;;;5020156;28;20495;-65
2023/06/17 07:38:07;;;;;;;6.40;5.90;;;27.10;51.70;;;;;;5012885;28;21038;-65
2023/06/17 07:40:37;;;;;;;7.43;6.83;;;27.10;51.70;;;;;;5021153;28;20509;-66
2023/06/17 07:43:05;;;;;;;6.77;6.17;;;27.10;51.70;;;;;;5022069;28;20519;-65
2023/06/17 07:45:33;;;;;;;7.30;6.60;;;27.10;51.60;;;;;;5012377;28;20492;-66
2023/06/17 07:48:03;;;;;;;6.40;5.90;;;27.10;51.70;;;;;;5016224;28;20472;-66
2023/06/17 07:50:31;;;;;;;5.77;5.37;;;27.10;51.80;;;;;;5016833;28;20572;-66
2023/06/17 07:53:00;;;;;;;6.60;6.10;;;27.10;51.80;;;;;;5018659;28;20506;-68
2023/06/17 07:55:30;;;;;;;6.70;6.20;;;27.10;51.70;;;;;;5019323;28;20541;-66
2023/06/17 07:57:58;;;;;;;6.30;5.80;;;27.10;51.70;;;;;;5014140;28;21034;-66
2023/06/17 08:00:28;;;;;;;6.97;6.33;;;27.20;51.60;;;;;;5011627;28;22767;-66
2023/06/17 08:02:56;;;;;;;6.50;6.00;;;27.20;51.70;;;;;;5017190;28;20463;-65
2023/06/17 08:05:26;;;;;;;6.20;5.70;;;27.20;51.60;;;;;;5011999;28;20532;-65
2023/06/17 08:07:54;;;;;;;6.37;5.80;;;27.20;51.60;;;;;;5016029;28;20453;-65
2023/06/17 08:10:22;;;;;;;6.13;5.63;;;27.20;51.60;;;;;;5015075;28;20479;-66
2023/06/17 08:12:51;;;;;;;5.90;5.40;;;27.20;51.60;;;;;;5020522;28;20896;-67
2023/06/17 08:15:19;;;;;;;6.47;5.87;;;27.20;51.70;;;;;;5012569;28;20460;-66
2023/06/17 08:17:50;;;;;;;6.43;5.93;;;27.20;51.60;;;;;;5017731;28;20525;-66
2023/06/17 08:20:18;;;;;;;6.93;6.30;;;27.20;51.70;;;;;;5015909;28;20467;-66
2023/06/17 08:22:49;;;;;;;5.83;5.43;;;27.20;51.70;;;;;;5020425;28;20503;-66
2023/06/17 08:25:17;;;;;;;6.07;5.50;;;27.20;51.60;;;;;;5021138;28;20489;-66
2023/06/17 08:27:47;;;;;;;7.40;6.77;;;27.20;51.60;;;;;;5018106;28;20451;-66
2023/06/17 08:30:15;;;;;;;6.50;6.00;;;27.20;51.60;;;;;;5018675;28;20807;-66
2023/06/17 08:32:44;;;;;;;6.67;6.07;;;27.20;51.70;;;;;;5011894;28;20470;-66
2023/06/17 08:35:14;;;;;;;6.87;5.97;;;27.20;51.60;;;;;;5014580;28;20500;-66
2023/06/17 08:37:42;;;;;;;6.47;5.97;;;27.30;51.70;;;;;;5023871;28;20464;-65
2023/06/17 08:40:15;;;;;;;7.20;6.60;;;27.30;51.70;;;;;;5039639;28;21754;-65
2023/06/17 08:42:43;;;;;;;6.27;5.87;;;27.30;51.80;;;;;;5024266;28;21200;-65
2023/06/17 08:45:11;;;;;;;6.83;6.23;;;27.30;51.70;;;;;;5021172;28;20505;-65
2023/06/17 08:47:40;;;;;;;7.50;6.80;;;27.30;51.70;;;;;;5023139;28;20471;-68
2023/06/17 08:50:09;;;;;;;6.03;5.63;;;27.30;51.60;;;;;;5028624;28;20477;-65
2023/06/17 08:52:39;;;;;;;6.03;5.57;;;27.30;51.80;;;;;;5015743;28;20460;-65
2023/06/17 08:55:08;;;;;;;6.30;5.70;;;27.30;51.90;;;;;;5012605;28;20452;-66
2023/06/17 08:57:38;;;;;;;5.90;5.40;;;27.30;52.00;;;;;;5018575;28;20460;-67
2023/06/17 09:00:10;;;;;;;5.83;5.27;;;27.30;51.90;;;;;;5014367;28;20485;-65
2023/06/17 09:02:42;;;;;;;6.10;5.60;;;27.30;52.00;;;;;;5016909;28;20966;-68
2023/06/17 09:05:10;;;;;;;5.33;4.93;;;27.30;52.00;;;;;;5018244;28;20460;-66
2023/06/17 09:07:39;;;;;;;6.43;5.93;;;27.40;51.90;;;;;;5016905;28;20456;-65
2023/06/17 09:10:08;;;;;;;6.60;6.07;;;27.40;51.90;;;;;;5015621;28;20475;-69
2023/06/17 09:12:39;;;;;;;6.27;5.83;;;27.40;51.90;;;;;;5021494;28;21023;-65
2023/06/17 09:15:11;;;;;;;8.13;6.60;;;27.40;51.80;;;;;;5014555;28;20469;-66
2023/06/17 09:17:39;;;;;;;5.77;5.37;;;27.40;51.80;;;;;;5017411;28;20461;-65
2023/06/17 09:20:10;;;;;;;6.20;5.70;;;27.40;51.80;;;;;;5016129;28;20458;-65
2023/06/17 09:22:42;;;;;;;6.70;6.10;;;27.40;51.80;;;;;;5018106;28;20465;-65
2023/06/17 09:25:14;;;;;;;6.20;5.70;;;27.30;51.80;;;;;;5017315;28;21048;-64
2023/06/17 09:27:48;;;;;;;6.40;5.90;;;27.30;51.80;;;;;;5017644;28;20543;-64
2023/06/17 09:30:41;;;;;;;7.10;6.50;;;27.30;51.90;;;;;;5015918;28;20579;-66
2023/06/17 09:33:18;;;;;;;10.40;8.03;;;27.30;51.80;;;;;;5014173;28;20472;-65
2023/06/17 09:35:46;;;;;;;7.13;6.53;;;27.20;51.80;;;;;;5015772;28;20499;-64
2023/06/17 09:38:17;;;;;;;7.57;6.77;;;27.20;51.80;;;;;;5019086;28;20461;-64
2023/06/17 09:40:49;;;;;;;7.30;6.20;;;27.20;51.60;;;;;;5017037;28;20555;-64
2023/06/17 09:43:19;;;;;;;6.80;6.20;;;27.20;51.50;;;;;;5014224;28;20469;-66
2023/06/17 09:45:55;;;;;;;9.43;6.87;;;27.30;51.30;;;;;;5019128;28;20533;-70
2023/06/17 09:48:30;;;;;;;7.33;6.73;;;27.30;51.20;;;;;;5019728;28;20460;-64
2023/06/17 09:50:59;;;;;;;7.30;6.70;;;27.30;50.90;;;;;;5022400;28;20498;-64
2023/06/17 09:53:29;;;;;;;6.73;6.13;;;27.30;50.80;;;;;;5018366;28;20548;-65
2023/06/17 09:55:59;;;;;;;7.57;6.87;;;27.30;50.70;;;;;;5015958;28;20468;-68
2023/06/17 09:58:31;;;;;;;6.57;6.07;;;27.30;50.70;;;;;;5018036;28;20460;-64
2023/06/17 10:01:05;;;;;;;6.83;6.10;;;27.30;50.20;;;;;;5012405;28;20462;-67
2023/06/17 10:03:34;;;;;;;6.97;6.47;;;27.30;50.20;;;;;;5015201;28;20463;-68
2023/06/17 10:06:08;;;;;;;7.00;6.30;;;27.30;50.10;;;;;;5018879;28;20471;-65
2023/06/17 10:08:37;;;;;;;6.80;6.30;;;27.30;50.00;;;;;;5010311;28;20463;-65
2023/06/17 10:11:06;;;;;;;6.30;5.80;;;27.30;49.20;;;;;;5017191;28;20562;-65
2023/06/17 10:13:37;;;;;;;6.40;5.90;;;27.30;49.50;;;;;;5012258;28;20476;-64
2023/06/17 10:16:09;;;;;;;7.63;5.57;;;27.30;49.60;;;;;;5011227;28;20464;-68
2023/06/17 10:18:39;;;;;;;7.00;6.40;;;27.30;49.60;;;;;;5015913;28;20522;-65
2023/06/17 10:21:11;;;;;;;6.37;5.77;;;27.30;49.90;;;;;;5014068;28;20466;-64
2023/06/17 10:23:40;;;;;;;6.50;5.90;;;27.40;49.90;;;;;;5012474;28;20527;-65
2023/06/17 10:26:11;;;;;;;6.20;5.70;;;27.40;49.80;;;;;;5014240;28;20459;-67
2023/06/17 10:28:45;;;;;;;5.90;5.47;;;27.40;49.80;;;;;;5013286;28;20464;-67
2023/06/17 10:31:22;;;;;;;6.00;5.40;;;27.40;49.90;;;;;;5018087;28;21060;-65
2023/06/17 10:33:53;;;;;;;7.60;6.63;;;27.50;49.90;;;;;;5017274;28;20493;-66
2023/06/17 10:36:21;;;;;;;5.57;5.07;;;27.50;49.90;;;;;;5019074;28;20522;-65
2023/06/17 10:38:56;;;;;;;6.17;5.70;;;27.50;49.90;;;;;;5014763;28;20531;-64
2023/06/17 10:41:59;;;;;;;6.23;5.73;;;27.50;50.00;;;;;;5015011;28;20489;-65
2023/06/17 10:44:41;;;;;;;6.27;5.70;;;27.50;50.00;;;;;;5014470;28;20459;-65
2023/06/17 10:47:22;;;;;;;6.73;6.13;;;27.50;50.00;;;;;;5012368;28;20466;-64
2023/06/17 10:49:53;;;;;;;7.33;6.47;;;27.50;50.10;;;;;;5014433;28;20559;-64
2023/06/17 10:52:22;;;;;;;6.47;5.97;;;27.50;50.10;;;;;;5020069;28;20862;-66
2023/06/17 10:54:55;;;;;;;6.00;5.60;;;27.50;50.10;;;;;;5017288;28;20467;-67
2023/06/17 10:57:31;;;;;;;5.80;5.40;;;27.50;50.00;;;;;;5014653;28;20457;-65
2023/06/17 11:00:08;;;;;;;6.27;5.77;;;27.50;49.80;;;;;;5015919;28;20458;-67
2023/06/17 11:02:37;;;;;;;6.40;5.90;;;27.50;49.60;;;;;;5015199;28;20452;-68
2023/06/17 11:05:07;;;;;;;6.20;5.70;;;27.50;49.40;;;;;;5016317;28;20494;-65
2023/06/17 11:07:35;;;;;;;8.60;5.63;;;27.50;49.30;;;;;;5013617;28;20882;-65
2023/06/17 11:10:04;;;;;;;5.77;5.27;;;27.50;48.80;;;;;;5016588;28;20471;-64
2023/06/17 11:12:35;;;;;;;6.43;5.87;;;27.50;48.70;;;;;;5014560;28;20455;-67
2023/06/17 11:15:07;;;;;;;10.00;6.03;;;27.50;48.30;;;;;;5016515;28;21173;-71
2023/06/17 11:17:36;;;;;;;8.90;6.07;;;27.50;48.30;;;;;;5032622;28;21186;-70
2023/06/17 11:20:06;;;;;;;6.20;5.60;;;27.50;48.40;;;;;;5017552;28;21016;-71
2023/06/17 11:22:38;;;;;;;6.10;5.50;;;27.50;48.20;;;;;;5017749;28;20822;-78
2023/06/17 11:25:07;;;;;;;6.40;5.80;;;27.50;48.00;;;;;;5013235;28;20455;-77
2023/06/17 11:27:38;;;;;;;7.90;5.70;;;27.50;47.60;;;;;;5015272;28;20511;-80
2023/06/17 11:30:10;;;;;;;7.17;5.80;;;27.50;47.60;;;;;;5024601;28;21034;-77
2023/06/17 11:32:40;;;;;;;6.93;6.33;;;27.50;47.70;;;;;;5017584;28;20474;-74
2023/06/17 11:35:09;;;;;;;5.80;5.30;;;27.50;47.90;;;;;;5006544;28;20924;-74
2023/06/17 11:37:38;;;;;;;6.10;5.60;;;27.50;47.80;;;;;;5009033;28;20558;-78
2023/06/17 11:40:11;;;;;;;6.30;5.70;;;27.50;48.00;;;;;;5022269;28;20489;-72
2023/06/17 11:42:40;;;;;;;5.53;5.13;;;27.50;48.10;;;;;;5015370;28;20581;-78
2023/06/17 11:45:11;;;;;;;6.23;5.73;;;27.50;48.20;;;;;;5016872;28;20910;-73
2023/06/17 11:47:39;;;;;;;5.80;5.03;;;27.50;48.20;;;;;;5012220;28;20459;-76
2023/06/17 11:50:09;;;;;;;6.37;5.20;;;27.50;48.20;;;;;;5014383;28;21157;-78
2023/06/17 11:52:37;;;;;;;6.20;5.70;;;27.50;48.40;;;;;;5012274;28;20524;-79
2023/06/17 11:55:07;;;;;;;5.87;5.37;;;27.40;48.50;;;;;;5007477;28;20543;-75
2023/06/17 11:57:35;;;;;;;6.03;5.43;;;27.50;48.50;;;;;;5014253;28;20496;-77
2023/06/17 12:00:09;;;;;;;6.30;5.70;;;27.50;48.50;;;;;;5012589;28;20944;-79
2023/06/17 12:02:42;;;;;;;7.13;5.20;;;27.40;48.20;;;;;;5017757;28;20459;-76
2023/06/17 12:05:11;;;;;;;5.50;5.10;;;27.40;47.70;;;;;;5012223;28;20471;-75
2023/06/17 12:07:40;;;;;;;6.50;5.17;;;27.40;47.50;;;;;;5017620;28;20741;-71
2023/06/17 12:10:11;;;;;;;5.50;5.00;;;27.40;47.20;;;;;;5021503;28;20456;-74
2023/06/17 12:12:40;;;;;;;5.43;5.03;;;27.50;47.20;;;;;;5017619;28;20476;-73
2023/06/17 12:15:10;;;;;;;6.33;5.83;;;27.60;46.70;;;;;;5018061;28;20463;-71
2023/06/17 12:17:44;;;;;;;5.97;5.47;;;27.80;46.80;;;;;;5024223;28;20509;-72
2023/06/17 12:20:16;;;;;;;5.70;5.30;;;27.90;46.30;;;;;;5025737;28;20556;-80
2023/06/17 12:22:45;;;;;;;6.37;5.30;;;27.90;46.00;;;;;;5014769;28;20966;-72
2023/06/17 12:25:16;;;;;;;6.20;5.70;;;27.90;46.30;;;;;;5018402;28;20564;-78
2023/06/17 12:27:44;;;;;;;5.60;5.20;;;27.80;46.50;;;;;;5024273;28;21018;-71
2023/06/17 12:30:13;;;;;;;6.03;5.53;;;27.70;46.70;;;;;;5020252;28;20956;-71
2023/06/17 12:32:43;;;;;;;5.60;5.13;;;27.70;46.80;;;;;;5014119;28;20587;-70
2023/06/17 12:35:14;;;;;;;4.97;4.67;;;27.60;47.20;;;;;;5017568;28;20980;-71
2023/06/17 12:37:43;;;;;;;5.63;5.10;;;27.70;47.50;;;;;;5016876;28;20513;-72
2023/06/17 12:40:12;;;;;;;4.97;4.57;;;27.80;47.50;;;;;;5028079;28;20443;-79
2023/06/17 12:42:41;;;;;;;5.83;5.23;;;27.90;47.40;;;;;;5025139;28;20469;-77
2023/06/17 12:45:10;;;;;;;5.80;5.40;;;27.80;47.50;;;;;;5011328;28;20984;-78
2023/06/17 12:47:39;;;;;;;5.70;5.30;;;27.80;46.60;;;;;;5007339;28;20787;-70
2023/06/17 12:50:11;;;;;;;6.30;5.83;;;27.80;46.70;;;;;;5011276;28;20513;-74
2023/06/17 12:52:41;;;;;;;6.30;5.80;;;27.70;47.00;;;;;;5026250;28;20481;-73
2023/06/17 12:55:10;;;;;;;5.93;5.50;;;27.80;46.90;;;;;;5032351;28;20463;-79
2023/06/17 12:57:39;;;;;;;6.40;5.80;;;27.80;46.50;;;;;;5022127;28;20457;-72
2023/06/17 13:00:10;;;;;;;5.37;4.97;;;27.80;46.70;;;;;;5021102;28;20576;-70
2023/06/17 13:02:39;;;;;;;6.70;5.60;;;27.90;46.80;;;;;;5027653;28;20465;-70